createdAt,value
2022-07-25T00:01:57.343Z,75723.19
2022-07-25T00:04:30.718Z,75725.19
2022-07-25T00:07:06.592Z,75719.19
2022-07-25T00:09:39.504Z,75715.22
2022-07-25T00:12:12.197Z,75707.25
2022-07-25T00:14:45.046Z,75709.22
2022-07-25T00:17:17.733Z,75711.22
2022-07-25T00:19:53.097Z,75707.25
2022-07-25T00:22:25.760Z,75707.25
2022-07-25T00:25:01.721Z,75701.25
2022-07-25T00:27:34.635Z,75701.25
2022-07-25T00:30:09.086Z,75695.28
2022-07-25T00:32:41.841Z,75693.28
2022-07-25T00:35:14.579Z,75687.31
2022-07-25T00:37:52.877Z,75681.31
2022-07-25T00:40:28.833Z,75679.31
2022-07-25T00:43:01.809Z,75679.31
2022-07-25T00:45:34.527Z,75679.31
2022-07-25T00:48:11.535Z,75681.31
2022-07-25T00:50:47.665Z,75689.28
2022-07-25T00:53:20.585Z,75687.31
2022-07-25T00:55:53.458Z,75697.28
2022-07-25T00:58:26.155Z,75691.28
2022-07-25T01:00:59.891Z,75697.28
2022-07-25T01:03:32.620Z,75697.28
2022-07-25T01:06:05.413Z,75691.28
2022-07-25T01:08:38.367Z,75683.31
2022-07-25T01:11:11.248Z,75681.31
2022-07-25T01:13:44.202Z,75671.34
2022-07-25T01:16:17.385Z,75667.38
2022-07-25T01:18:50.302Z,75665.38
2022-07-25T01:21:24.819Z,75671.34
2022-07-25T01:23:57.422Z,75667.38
2022-07-25T01:26:30.615Z,75673.34
2022-07-25T01:29:03.778Z,75667.38
2022-07-25T01:31:36.495Z,75663.38
2022-07-25T01:34:11.199Z,75663.38
2022-07-25T01:36:43.821Z,75657.41
2022-07-25T01:39:16.552Z,75659.41
2022-07-25T01:41:49.164Z,75651.41
2022-07-25T01:44:21.733Z,75647.44
2022-07-25T01:46:58.746Z,75641.44
2022-07-25T01:49:31.454Z,75641.44
2022-07-25T01:52:04.241Z,75635.47
2022-07-25T01:54:41.759Z,75631.47
2022-07-25T01:57:18.120Z,75621.50
2022-07-25T01:59:51.015Z,75613.53
2022-07-25T02:02:23.824Z,75615.53
2022-07-25T02:04:58.218Z,75609.56
2022-07-25T02:07:31.395Z,75607.56
2022-07-25T02:10:06.426Z,75603.56
2022-07-25T02:12:39.478Z,75599.59
2022-07-25T02:15:15.278Z,75591.63
2022-07-25T02:17:48.151Z,75591.63
2022-07-25T02:20:27.409Z,75579.66
2022-07-25T02:23:00.237Z,75583.63
2022-07-25T02:25:36.515Z,75587.63
2022-07-25T02:28:10.480Z,75585.63
2022-07-25T02:30:44.255Z,75589.63
2022-07-25T02:33:22.843Z,75577.66
2022-07-25T02:35:56.100Z,75583.63
2022-07-25T02:38:31.061Z,75583.63
2022-07-25T02:41:03.916Z,75577.66
2022-07-25T02:43:36.594Z,75583.63
2022-07-25T02:46:09.491Z,75571.69
2022-07-25T02:48:42.353Z,75571.69
2022-07-25T02:51:15.508Z,75571.69
2022-07-25T02:53:57.314Z,75577.66
2022-07-25T02:56:33.323Z,75573.69
2022-07-25T02:59:08.458Z,75583.63
2022-07-25T03:01:44.932Z,75587.63
2022-07-25T03:04:25.420Z,75587.63
2022-07-25T03:07:04.808Z,75577.66
2022-07-25T03:09:37.817Z,75569.69
2022-07-25T03:12:10.996Z,75563.72
2022-07-25T03:14:45.855Z,75555.72
2022-07-25T03:17:18.842Z,75555.72
2022-07-25T03:19:54.096Z,75555.72
2022-07-25T03:22:27.278Z,75549.75
2022-07-25T03:25:02.799Z,75551.75
2022-07-25T03:27:39.437Z,75555.72
2022-07-25T03:33:04.215Z,75543.78
2022-07-25T03:35:52.876Z,75541.78
2022-07-25T03:38:25.497Z,75547.75
2022-07-25T03:40:58.148Z,75537.78
2022-07-25T03:43:31.501Z,75543.78
2022-07-25T03:46:04.191Z,75547.75
2022-07-25T03:48:36.820Z,75545.75
2022-07-25T03:51:09.476Z,75547.75
2022-07-25T03:54:01.882Z,75553.75
2022-07-25T03:56:43.891Z,75555.72
2022-07-25T03:59:20.282Z,75559.72
2022-07-25T04:01:52.932Z,75559.72
2022-07-25T04:04:25.457Z,75559.72
2022-07-25T04:06:58.074Z,75559.72
2022-07-25T04:09:32.372Z,75557.72
2022-07-25T04:12:06.487Z,75557.72
2022-07-25T04:14:39.179Z,75563.72
2022-07-25T04:17:11.972Z,75563.72
2022-07-25T04:19:44.624Z,75563.72
2022-07-25T04:22:17.735Z,75559.72
2022-07-25T04:24:50.425Z,75563.72
2022-07-25T04:27:23.073Z,75561.72
2022-07-25T04:29:55.601Z,75555.72
2022-07-25T04:32:28.153Z,75551.75
2022-07-25T04:35:00.678Z,75555.72
2022-07-25T04:37:33.266Z,75561.72
2022-07-25T04:40:06.268Z,75563.72
2022-07-25T04:42:38.874Z,75563.72
2022-07-25T04:45:12.064Z,75555.72
2022-07-25T04:47:44.755Z,75543.78
2022-07-25T04:50:18.798Z,75529.81
2022-07-25T04:52:54.437Z,75515.88
2022-07-25T04:55:26.981Z,75515.88
2022-07-25T04:58:00.565Z,75511.88
2022-07-25T05:00:33.565Z,75511.88
2022-07-25T05:03:06.188Z,75499.91
2022-07-25T05:05:38.807Z,75493.94
2022-07-25T05:08:11.324Z,75493.94
2022-07-25T05:10:44.095Z,75479.97
2022-07-25T05:13:16.713Z,75468.03
2022-07-25T05:15:49.298Z,75462.03
2022-07-25T05:18:25.962Z,75450.09
2022-07-25T05:20:58.657Z,75442.09
2022-07-25T05:23:31.368Z,75430.16
2022-07-25T05:26:03.946Z,75410.22
2022-07-25T05:28:36.528Z,75400.25
2022-07-25T05:31:09.225Z,75394.25
2022-07-25T05:33:42.632Z,75402.25
2022-07-25T05:36:15.238Z,75386.28
2022-07-25T05:38:47.837Z,75396.25
2022-07-25T05:41:21.112Z,75394.25
2022-07-25T05:43:53.690Z,75392.28
2022-07-25T05:46:26.468Z,75392.28
2022-07-25T05:48:59.428Z,75394.25
2022-07-25T05:51:31.951Z,75372.34
2022-07-25T05:54:04.985Z,75378.31
2022-07-25T05:56:37.721Z,75396.25
2022-07-25T05:59:10.358Z,75404.22
2022-07-25T06:01:43.962Z,75400.25
2022-07-25T06:04:16.616Z,75404.22
2022-07-25T06:06:51.606Z,75422.19
2022-07-25T06:09:24.208Z,75416.19
2022-07-25T06:12:00.285Z,75414.19
2022-07-25T06:14:33.798Z,75420.19
2022-07-25T06:17:06.413Z,75434.13
2022-07-25T06:19:38.958Z,75454.06
2022-07-25T06:22:11.573Z,75442.09
2022-07-25T06:24:44.102Z,75472.00
2022-07-25T06:27:29.001Z,75491.94
2022-07-25T06:30:19.237Z,75487.97
2022-07-25T06:32:54.632Z,75479.97
2022-07-25T06:35:34.759Z,75476.00
2022-07-25T06:38:10.703Z,75454.06
2022-07-25T06:40:43.389Z,75460.06
2022-07-25T06:43:19.750Z,75478.00
2022-07-25T06:45:54.445Z,75466.03
2022-07-25T06:48:27.279Z,75479.97
2022-07-25T06:51:00.255Z,75462.03
2022-07-25T06:53:33.166Z,75438.13
2022-07-25T06:56:08.057Z,75446.09
2022-07-25T06:58:51.490Z,75432.13
2022-07-25T07:01:26.360Z,75450.09
2022-07-25T07:04:02.520Z,75460.06
2022-07-25T07:06:36.825Z,75448.09
2022-07-25T07:09:14.495Z,75436.13
2022-07-25T07:11:49.916Z,75416.19
2022-07-25T07:14:22.907Z,75416.19
2022-07-25T07:16:55.713Z,75400.25
2022-07-25T07:19:28.987Z,75428.16
2022-07-25T07:22:01.816Z,75404.22
2022-07-25T07:24:43.921Z,75388.28
2022-07-25T07:27:19.198Z,75374.34
2022-07-25T07:30:00.792Z,75356.41
2022-07-25T07:32:37.253Z,75344.44
2022-07-25T07:35:16.712Z,75340.44
2022-07-25T07:37:49.511Z,75354.41
2022-07-25T07:40:22.878Z,75362.38
2022-07-25T07:42:57.385Z,75400.25
2022-07-25T07:45:30.742Z,75388.28
2022-07-25T07:48:04.309Z,75380.31
2022-07-25T07:50:36.908Z,75396.25
2022-07-25T07:53:09.523Z,75364.38
2022-07-25T07:55:55.394Z,75312.53
2022-07-25T07:58:28.145Z,75292.59
2022-07-25T08:01:00.724Z,75286.63
2022-07-25T08:03:33.648Z,75336.47
2022-07-25T08:06:06.504Z,75336.47
2022-07-25T08:08:39.586Z,75306.56
2022-07-25T08:11:12.328Z,75268.69
2022-07-25T08:13:44.936Z,75264.69
2022-07-25T08:16:17.784Z,75290.63
2022-07-25T08:18:50.635Z,75290.63
2022-07-25T08:21:23.238Z,75278.66
2022-07-25T08:23:55.983Z,75272.69
2022-07-25T08:26:30.544Z,75308.56
2022-07-25T08:29:21.984Z,75284.63
2022-07-25T08:31:56.520Z,75294.59
2022-07-25T08:34:29.124Z,75322.50
2022-07-25T08:37:02.520Z,75312.53
2022-07-25T08:39:35.124Z,75280.66
2022-07-25T08:42:11.071Z,75268.69
2022-07-25T08:44:49.389Z,75236.78
2022-07-25T08:47:22.543Z,75196.94
2022-07-25T08:50:00.865Z,75222.84
2022-07-25T08:52:37.217Z,75208.88
2022-07-25T08:55:14.679Z,75149.09
2022-07-25T08:57:50.450Z,75109.22
2022-07-25T09:00:26.389Z,75159.06
2022-07-25T09:03:00.547Z,75129.16
2022-07-25T09:05:34.582Z,75133.16
2022-07-25T09:08:16.569Z,75105.25
2022-07-25T09:10:52.460Z,75089.28
2022-07-25T09:13:25.101Z,75117.19
2022-07-25T09:15:59.905Z,75113.22
2022-07-25T09:18:33.799Z,75089.28
2022-07-25T09:21:13.648Z,75041.47
2022-07-25T09:23:46.567Z,75071.34
2022-07-25T09:26:22.714Z,75125.16
2022-07-25T09:28:57.296Z,75184.97
2022-07-25T09:31:33.329Z,75177.00
2022-07-25T09:34:08.728Z,75163.03
2022-07-25T09:37:04.657Z,75196.94
2022-07-25T09:39:47.300Z,75236.78
2022-07-25T09:42:33.024Z,75254.72
2022-07-25T09:45:11.981Z,75228.81
2022-07-25T09:47:56.626Z,75220.84
2022-07-25T09:50:32.048Z,75206.91
2022-07-25T09:53:04.757Z,75200.91
2022-07-25T09:55:37.335Z,75216.88
2022-07-25T09:58:09.952Z,75190.94
2022-07-25T10:00:43.059Z,75206.91
2022-07-25T10:03:26.475Z,75175.00
2022-07-25T10:06:14.971Z,75167.03
2022-07-25T10:08:49.071Z,75196.94
2022-07-25T10:11:22.637Z,75153.06
2022-07-25T10:13:56.649Z,75093.28
2022-07-25T10:16:29.254Z,75057.41
2022-07-25T10:19:01.997Z,75043.44
2022-07-25T10:21:34.589Z,74993.63
2022-07-25T10:24:09.986Z,74937.81
2022-07-25T10:26:53.095Z,74961.72
2022-07-25T10:29:33.902Z,74937.81
2022-07-25T10:32:08.714Z,74899.94
2022-07-25T10:34:52.997Z,74947.78
2022-07-25T10:37:32.628Z,74929.84
2022-07-25T10:40:06.208Z,74997.59
2022-07-25T10:42:45.827Z,75005.59
2022-07-25T10:45:18.555Z,75015.53
2022-07-25T10:47:55.888Z,74979.66
2022-07-25T10:50:53.605Z,74933.81
2022-07-25T10:53:48.819Z,74955.75
2022-07-25T10:56:23.381Z,74899.94
2022-07-25T10:59:01.178Z,74901.94
2022-07-25T11:01:38.192Z,74907.91
2022-07-25T11:04:17.200Z,74945.78
2022-07-25T11:06:50.311Z,74973.69
2022-07-25T11:09:28.425Z,74935.81
2022-07-25T11:12:01.469Z,74929.84
2022-07-25T11:14:41.688Z,74993.63
2022-07-25T11:17:25.331Z,75025.50
2022-07-25T11:20:05.299Z,74965.72
2022-07-25T11:22:38.061Z,74889.97
2022-07-25T11:25:14.365Z,74925.84
2022-07-25T11:27:52.279Z,75017.53
2022-07-25T11:30:25.881Z,75005.59
2022-07-25T11:33:03.828Z,75019.53
2022-07-25T11:35:36.581Z,75027.50
2022-07-25T11:38:14.177Z,75005.59
2022-07-25T11:40:47.092Z,75025.50
2022-07-25T11:43:24.370Z,75053.41
2022-07-25T11:46:02.891Z,75105.25
2022-07-25T11:48:39.058Z,75039.47
2022-07-25T11:51:19.146Z,75021.53
2022-07-25T11:53:52.100Z,74949.78
2022-07-25T11:56:41.990Z,74965.72
2022-07-25T11:59:15.662Z,75059.41
2022-07-25T12:01:49.871Z,75095.28
2022-07-25T12:04:22.889Z,75107.22
2022-07-25T12:07:05.764Z,75147.09
2022-07-25T12:09:38.506Z,75121.19
2022-07-25T12:12:11.551Z,75099.25
2022-07-25T12:14:46.823Z,75099.25
2022-07-25T12:17:19.786Z,75109.22
2022-07-25T12:19:52.378Z,75111.22
2022-07-25T12:22:25.112Z,75047.44
2022-07-25T12:24:57.878Z,75061.38
2022-07-25T12:27:32.198Z,75051.41
2022-07-25T12:30:06.456Z,75085.31
2022-07-25T12:32:39.871Z,75196.94
2022-07-25T12:35:14.027Z,75242.78
2022-07-25T12:37:48.169Z,75284.63
2022-07-25T12:40:21.250Z,75314.53
2022-07-25T12:42:53.921Z,75318.53
2022-07-25T12:45:26.971Z,75354.41
2022-07-25T12:47:59.563Z,75350.41
2022-07-25T12:50:32.238Z,75404.22
2022-07-25T12:53:05.208Z,75384.31
2022-07-25T12:55:38.018Z,75364.38
2022-07-25T12:58:11.616Z,75356.41
2022-07-25T13:00:44.834Z,75274.66
2022-07-25T13:03:18.080Z,75284.63
2022-07-25T13:05:50.676Z,75216.88
2022-07-25T13:08:23.271Z,75139.13
2022-07-25T13:10:55.830Z,75107.22
2022-07-25T13:13:28.567Z,75059.41
2022-07-25T13:16:02.004Z,75067.38
2022-07-25T13:18:34.625Z,75107.22
2022-07-25T13:21:07.336Z,75125.16
2022-07-25T13:23:40.343Z,75115.19
2022-07-25T13:26:13.295Z,75127.16
2022-07-25T13:28:45.840Z,75101.25
2022-07-25T13:31:20.398Z,75097.25
2022-07-25T13:33:53.746Z,75043.44
2022-07-25T13:36:28.749Z,75037.47
2022-07-25T13:39:01.446Z,75075.34
2022-07-25T13:41:34.027Z,75071.34
2022-07-25T13:44:07.185Z,75075.34
2022-07-25T13:46:40.121Z,75109.22
2022-07-25T13:49:12.721Z,75115.19
2022-07-25T13:51:45.691Z,75153.06
2022-07-25T13:54:19.537Z,75117.19
2022-07-25T13:56:52.128Z,75091.28
2022-07-25T13:59:24.739Z,75047.44
2022-07-25T14:01:57.383Z,75069.34
2022-07-25T14:04:30.772Z,75015.53
2022-07-25T14:07:03.407Z,74995.63
2022-07-25T14:09:35.972Z,75025.50
2022-07-25T14:12:08.651Z,74983.66
2022-07-25T14:14:41.396Z,74969.69
2022-07-25T14:17:14.281Z,74961.72
2022-07-25T14:19:47.292Z,74965.72
2022-07-25T14:22:20.078Z,75017.53
2022-07-25T14:24:53.021Z,75015.53
2022-07-25T14:27:25.687Z,75021.53
2022-07-25T14:29:58.366Z,75001.59
2022-07-25T14:32:31.105Z,74977.69
2022-07-25T14:35:06.091Z,75077.34
2022-07-25T14:37:38.903Z,75053.41
2022-07-25T14:40:12.472Z,75055.41
2022-07-25T14:42:46.667Z,75089.28
2022-07-25T14:45:20.334Z,75117.19
2022-07-25T14:47:54.029Z,75145.09
2022-07-25T14:50:27.722Z,75204.91
2022-07-25T14:53:00.504Z,75188.97
2022-07-25T14:55:33.310Z,75169.03
2022-07-25T14:58:05.891Z,75157.06
2022-07-25T15:00:41.750Z,75157.06
2022-07-25T15:03:15.579Z,75149.09
2022-07-25T15:05:48.285Z,75153.06
2022-07-25T15:08:21.071Z,75101.25
2022-07-25T15:10:54.159Z,75125.16
2022-07-25T15:13:31.825Z,75129.16
2022-07-25T15:16:05.599Z,75101.25
2022-07-25T15:18:52.536Z,75125.16
2022-07-25T15:21:31.402Z,75107.22
2022-07-25T15:24:04.799Z,75095.28
2022-07-25T15:26:38.238Z,75087.31
2022-07-25T15:29:16.374Z,75127.16
2022-07-25T15:31:51.923Z,75161.06
2022-07-25T15:34:29.138Z,75141.13
2022-07-25T15:37:02.467Z,75107.22
2022-07-25T15:39:38.781Z,75157.06
2022-07-25T15:42:11.584Z,75145.09
2022-07-25T15:44:44.171Z,75105.25
2022-07-25T15:47:16.829Z,75127.16
2022-07-25T15:49:49.621Z,75147.09
2022-07-25T15:52:24.846Z,75163.03
2022-07-25T15:54:57.608Z,75204.91
2022-07-25T15:57:30.559Z,75202.91
2022-07-25T16:00:06.230Z,75232.81
2022-07-25T16:02:39.165Z,75236.78
2022-07-25T16:05:11.769Z,75204.91
2022-07-25T16:07:45.069Z,75224.84
2022-07-25T16:10:18.285Z,75278.66
2022-07-25T16:12:50.937Z,75252.75
2022-07-25T16:15:24.210Z,75272.69
2022-07-25T16:18:02.368Z,75268.69
2022-07-25T16:20:39.060Z,75276.66
2022-07-25T16:23:12.148Z,75292.59
2022-07-25T16:25:47.922Z,75356.41
2022-07-25T16:28:20.792Z,75376.31
2022-07-25T16:30:58.163Z,75392.28
2022-07-25T16:33:36.249Z,75392.28
2022-07-25T16:36:11.061Z,75370.34
2022-07-25T16:38:45.441Z,75332.47
2022-07-25T16:41:18.405Z,75320.50
2022-07-25T16:43:52.362Z,75250.75
2022-07-25T16:46:28.483Z,75284.63
2022-07-25T16:49:05.057Z,75332.47
2022-07-25T16:51:39.186Z,75354.41
2022-07-25T16:54:12.583Z,75324.50
2022-07-25T16:56:46.638Z,75334.47
2022-07-25T16:59:22.374Z,75284.63
2022-07-25T17:01:55.256Z,75240.78
2022-07-25T17:04:28.487Z,75214.88
2022-07-25T17:07:01.444Z,75216.88
2022-07-25T17:09:34.103Z,75222.84
2022-07-25T17:12:07.522Z,75298.59
2022-07-25T17:14:40.451Z,75328.50
2022-07-25T17:17:13.511Z,75344.44
2022-07-25T17:19:46.458Z,75382.31
2022-07-25T17:22:20.228Z,75400.25
2022-07-25T17:24:53.114Z,75414.19
2022-07-25T17:27:26.292Z,75440.13
2022-07-25T17:29:59.068Z,75470.00
2022-07-25T17:32:31.874Z,75487.97
2022-07-25T17:35:04.901Z,75503.91
2022-07-25T17:37:37.548Z,75499.91
2022-07-25T17:40:10.892Z,75515.88
2022-07-25T17:42:45.470Z,75537.78
2022-07-25T17:45:18.302Z,75551.75
2022-07-25T17:47:52.525Z,75553.75
2022-07-25T17:50:29.364Z,75557.72
2022-07-25T17:53:02.567Z,75559.72
2022-07-25T17:55:38.987Z,75569.69
2022-07-25T17:58:12.104Z,75583.63
2022-07-25T18:00:46.911Z,75607.56
2022-07-25T18:03:20.195Z,75609.56
2022-07-25T18:05:53.672Z,75627.50
2022-07-25T18:08:30.437Z,75633.47
2022-07-25T18:11:03.702Z,75637.47
2022-07-25T18:13:36.609Z,75659.41
2022-07-25T18:16:10.311Z,75671.34
2022-07-25T18:18:43.196Z,75679.31
2022-07-25T18:21:15.890Z,75683.31
2022-07-25T18:23:48.589Z,75691.28
2022-07-25T18:26:22.013Z,75713.22
2022-07-25T18:28:54.941Z,75719.19
2022-07-25T18:31:27.642Z,75731.16
2022-07-25T18:34:00.641Z,75735.16
2022-07-25T18:36:33.798Z,75745.13
2022-07-25T18:39:06.661Z,75759.06
2022-07-25T18:41:39.347Z,75771.03
2022-07-25T18:44:11.986Z,75783.00
2022-07-25T18:46:46.045Z,75783.00
2022-07-25T18:49:18.789Z,75786.97
2022-07-25T18:51:51.511Z,75792.97
2022-07-25T18:54:24.156Z,75798.94
2022-07-25T18:56:56.721Z,75790.97
2022-07-25T18:59:29.279Z,75810.91
2022-07-25T19:02:03.104Z,75816.88
2022-07-25T19:04:36.112Z,75832.84
2022-07-25T19:07:09.569Z,75838.81
2022-07-25T19:09:42.339Z,75838.81
2022-07-25T19:12:15.373Z,75850.78
2022-07-25T19:14:48.537Z,75852.78
2022-07-25T19:17:21.637Z,75856.75
2022-07-25T19:19:54.411Z,75880.69
2022-07-25T19:22:30.824Z,75896.63
2022-07-25T19:25:07.902Z,75900.63
2022-07-25T19:28:20.463Z,75910.59
2022-07-25T19:31:09.416Z,75920.56
2022-07-25T19:48:16.815Z,75984.34
2022-07-25T19:55:09.298Z,76000.28
2022-07-25T20:01:21.213Z,76022.22
2022-07-25T20:03:54.337Z,76030.19
2022-07-25T20:06:27.487Z,76034.19
2022-07-25T20:09:00.528Z,76038.19
2022-07-25T20:11:33.274Z,76038.19
2022-07-25T20:14:06.350Z,76042.16
2022-07-25T20:16:44.195Z,76046.16
2022-07-25T20:19:25.701Z,76054.13
2022-07-25T20:22:01.946Z,76048.16
2022-07-25T20:24:35.472Z,76048.16
2022-07-25T20:27:10.164Z,76044.16
2022-07-25T20:29:49.088Z,76042.16
2022-07-25T20:32:24.311Z,76038.19
2022-07-25T20:34:58.898Z,76042.16
2022-07-25T20:37:35.857Z,76042.16
2022-07-25T20:40:10.765Z,76046.16
2022-07-25T20:42:49.021Z,76048.16
2022-07-25T20:45:28.923Z,76052.13
2022-07-25T20:48:03.199Z,76058.13
2022-07-25T20:50:40.780Z,76062.09
2022-07-25T20:53:14.984Z,76066.09
2022-07-25T20:55:49.798Z,76066.09
2022-07-25T20:58:24.499Z,76072.06
2022-07-25T21:01:17.941Z,76080.03
2022-07-25T21:03:53.946Z,76088.03
2022-07-25T21:06:29.872Z,76096.00
2022-07-25T21:09:09.134Z,76107.97
2022-07-25T21:11:47.831Z,76111.94
2022-07-25T21:14:33.591Z,76117.94
2022-07-25T21:17:12.887Z,76137.88
2022-07-25T21:19:50.040Z,76147.84
2022-07-25T21:22:23.698Z,76161.78
2022-07-25T21:25:05.316Z,76173.75
2022-07-25T21:27:49.069Z,76185.72
2022-07-25T21:30:23.832Z,76195.69
2022-07-25T21:32:59.293Z,76207.66
2022-07-25T21:35:50.417Z,76221.59
2022-07-25T21:38:33.455Z,76233.56
2022-07-25T21:41:14.423Z,76235.56
2022-07-25T21:43:52.989Z,76249.50
2022-07-25T21:46:28.232Z,76257.50
2022-07-25T21:49:41.824Z,76263.47
2022-07-25T21:52:19.225Z,76281.41
2022-07-25T21:55:05.498Z,76285.41
2022-07-25T21:57:46.855Z,76289.38
2022-07-25T22:00:26.717Z,76301.34
2022-07-25T22:03:01.923Z,76311.31
2022-07-25T22:05:42.496Z,76311.31
2022-07-25T22:08:17.930Z,76319.31
2022-07-25T22:10:57.925Z,76327.28
2022-07-25T22:13:33.063Z,76339.25
2022-07-25T22:16:09.472Z,76347.22
2022-07-25T22:18:49.817Z,76353.19
2022-07-25T22:21:31.856Z,76359.19
2022-07-25T22:24:10.347Z,76365.16
2022-07-25T22:26:54.853Z,76371.13
2022-07-25T22:32:25.684Z,76381.09
2022-07-25T22:35:02.035Z,76383.09
2022-07-25T22:37:52.922Z,76393.06
2022-07-25T22:40:34.135Z,76401.03
2022-07-25T22:43:11.914Z,76407.03
2022-07-25T22:45:45.943Z,76401.03
2022-07-25T22:48:20.532Z,76403.03
2022-07-25T22:51:05.571Z,76411.00
2022-07-25T22:53:43.686Z,76415.00
2022-07-25T22:56:23.857Z,76417.00
2022-07-25T22:59:01.084Z,76421.00
2022-07-25T23:01:35.389Z,76424.97
2022-07-25T23:04:25.868Z,76432.94
2022-07-25T23:07:01.361Z,76436.94
2022-07-25T23:09:47.643Z,76440.94
2022-07-25T23:12:25.295Z,76440.94
2022-07-25T23:15:05.903Z,76460.88
2022-07-25T23:23:29.568Z,76456.88
2022-07-25T23:26:03.297Z,76466.84
2022-07-25T23:28:58.492Z,76474.81
2022-07-25T23:31:37.869Z,76476.81
2022-07-25T23:34:14.243Z,76478.81
2022-07-25T23:36:49.973Z,76476.81
2022-07-25T23:42:20.273Z,76486.78
2022-07-25T23:45:07.288Z,76490.78
2022-07-25T23:47:44.191Z,76498.75
2022-07-25T23:50:23.900Z,76502.72
2022-07-25T23:53:00.726Z,76498.75
2022-07-25T23:55:37.741Z,76486.78
2022-07-25T23:58:12.413Z,76490.78
